Time;durP1;ratioP1;P1;durP2;ratioP2;P2;SDS_P1;SDS_P2;PMS_P1;PMS_P2;Temp;Humidity;BMP_temperature;BMP_pressure;BME280_temperature;BME280_humidity;BME280_pressure;Samples;Min_cycle;Max_cycle;Signal;HPM_P1;HPM_P2
2023/09/02 00:01:26;;;;;;;25.60;15.88;;;;;;;17.15;100.00;101512.81;5072915;28;20029;-65
2023/09/02 00:03:52;;;;;;;24.15;16.25;;;;;;;17.19;100.00;101497.66;5072664;28;20116;-64
2023/09/02 00:06:17;;;;;;;24.33;15.93;;;;;;;17.16;100.00;101498.56;5072675;28;20044;-64
2023/09/02 00:08:42;;;;;;;23.90;15.25;;;;;;;17.23;100.00;101500.25;5073034;28;20178;-64
2023/09/02 00:11:08;;;;;;;24.55;16.00;;;;;;;17.22;100.00;101495.81;5071326;28;20039;-64
2023/09/02 00:13:33;;;;;;;23.85;14.88;;;;;;;17.28;100.00;101494.84;5072799;28;20115;-67
2023/09/02 00:15:59;;;;;;;24.42;15.13;;;;;;;17.20;100.00;101494.09;5072748;28;20148;-63
2023/09/02 00:18:24;;;;;;;23.00;14.23;;;;;;;17.29;100.00;101493.97;5088263;28;20498;-64
2023/09/02 00:20:49;;;;;;;22.80;14.55;;;;;;;17.24;100.00;101496.69;5072962;28;20036;-66
2023/09/02 00:23:15;;;;;;;24.40;15.80;;;;;;;17.22;100.00;101503.81;5072766;28;20024;-65
2023/09/02 00:25:40;;;;;;;23.85;15.50;;;;;;;17.19;100.00;101498.53;5088166;28;20016;-67
2023/09/02 00:28:05;;;;;;;23.90;15.32;;;;;;;17.15;100.00;101496.78;5072547;28;20391;-65
2023/09/02 00:30:31;;;;;;;23.80;15.63;;;;;;;17.22;100.00;101500.28;5076846;28;20090;-63
2023/09/02 00:32:56;;;;;;;24.38;15.68;;;;;;;17.22;100.00;101497.59;5076332;28;20053;-65
2023/09/02 00:35:21;;;;;;;22.60;14.52;;;;;;;17.33;100.00;101505.47;5076729;28;20503;-66
2023/09/02 00:37:47;;;;;;;22.98;14.35;;;;;;;17.25;100.00;101508.25;5076495;28;20036;-66
2023/09/02 00:40:17;;;;;;;22.63;14.15;;;;;;;17.32;100.00;101509.94;5076303;28;20038;-63
2023/09/02 00:42:43;;;;;;;24.05;15.00;;;;;;;17.36;100.00;101509.00;5076530;28;20025;-69
2023/09/02 00:45:09;;;;;;;24.13;15.35;;;;;;;17.35;100.00;101517.91;5076215;28;20521;-70
2023/09/02 00:47:34;;;;;;;23.85;15.88;;;;;;;17.30;100.00;101511.75;5076114;28;20032;-72
2023/09/02 00:50:00;;;;;;;24.83;15.65;;;;;;;17.28;100.00;101507.34;5076674;28;20103;-72
2023/09/02 00:52:26;;;;;;;24.20;15.70;;;;;;;17.29;100.00;101509.13;5076042;28;20021;-70
2023/09/02 00:54:51;;;;;;;23.65;15.15;;;;;;;17.28;100.00;101513.56;5076148;28;20584;-69
2023/09/02 00:57:17;;;;;;;24.58;15.15;;;;;;;17.29;100.00;101512.66;5076474;28;20041;-69
2023/09/02 00:59:42;;;;;;;25.63;16.63;;;;;;;17.23;100.00;101505.59;5075971;28;20487;-72
2023/09/02 01:02:09;;;;;;;23.95;16.02;;;;;;;17.20;100.00;101510.13;5074600;28;20036;-70
2023/09/02 01:04:34;;;;;;;25.13;15.82;;;;;;;17.18;100.00;101518.16;5076019;28;20083;-67
2023/09/02 01:07:01;;;;;;;25.65;15.52;;;;;;;17.21;100.00;101517.19;5075850;28;20041;-70
2023/09/02 01:09:27;;;;;;;26.80;16.30;;;;;;;17.17;100.00;101518.13;5075727;28;20067;-67
2023/09/02 01:11:52;;;;;;;24.70;16.27;;;;;;;17.15;100.00;101518.16;5075855;28;20424;-70
2023/09/02 01:14:20;;;;;;;24.33;15.98;;;;;;;17.15;100.00;101519.97;5075749;28;20028;-72
2023/09/02 01:16:45;;;;;;;24.25;15.93;;;;;;;17.16;100.00;101519.94;5071851;28;20156;-64
2023/09/02 01:19:15;;;;;;;24.02;15.23;;;;;;;17.16;100.00;101517.25;5076030;28;20559;-70
2023/09/02 01:22:02;;;;;;;24.10;15.32;;;;;;;17.16;100.00;101519.06;5075549;28;20028;-67
2023/09/02 01:24:43;;;;;;;25.27;16.20;;;;;;;17.06;100.00;101523.63;5073541;28;20387;-68
2023/09/02 01:27:12;;;;;;;23.73;15.85;;;;;;;17.03;100.00;101524.53;5075361;28;20536;-72
2023/09/02 01:29:47;;;;;;;23.75;15.45;;;;;;;17.02;100.00;101532.56;5075396;28;20124;-71
2023/09/02 01:32:14;;;;;;;25.10;15.68;;;;;;;16.94;100.00;101529.13;5075310;28;20041;-71
2023/09/02 01:34:41;;;;;;;24.45;16.20;;;;;;;16.95;100.00;101528.19;5075556;28;20021;-71
2023/09/02 01:37:08;;;;;;;24.77;16.15;;;;;;;16.86;100.00;101531.81;5075400;28;20029;-71
2023/09/02 01:39:37;;;;;;;24.77;16.20;;;;;;;16.83;100.00;101524.72;5074960;28;20036;-71
2023/09/02 01:42:04;;;;;;;24.75;16.23;;;;;;;16.81;100.00;101525.66;5074414;28;20063;-71
2023/09/02 01:44:31;;;;;;;25.20;17.15;;;;;;;16.82;100.00;101532.75;5075128;28;20029;-70
2023/09/02 01:46:57;;;;;;;23.90;15.13;;;;;;;16.85;100.00;101540.75;5075221;28;20031;-69
2023/09/02 01:49:23;;;;;;;23.90;15.90;;;;;;;16.86;100.00;101548.75;5075220;28;20020;-71
2023/09/02 01:51:49;;;;;;;24.95;16.02;;;;;;;16.88;100.00;101546.09;5075163;28;20043;-70
2023/09/02 01:54:14;;;;;;;24.15;15.65;;;;;;;16.89;100.00;101545.16;5071172;28;20024;-68
2023/09/02 01:56:40;;;;;;;24.13;15.80;;;;;;;16.89;100.00;101550.50;5073593;28;20456;-69
2023/09/02 01:59:06;;;;;;;24.60;15.93;;;;;;;16.83;100.00;101548.75;5074925;28;20041;-68
2023/09/02 02:01:34;;;;;;;23.10;15.15;;;;;;;16.83;100.00;101546.09;5074928;28;20471;-71
2023/09/02 02:04:02;;;;;;;23.75;15.15;;;;;;;16.85;100.00;101548.75;5074850;28;20028;-71
2023/09/02 02:06:30;;;;;;;25.10;15.52;;;;;;;16.86;100.00;101547.84;5074652;28;20078;-69
2023/09/02 02:09:04;;;;;;;23.92;14.98;;;;;;;16.89;100.00;101558.53;5074903;28;20052;-64
2023/09/02 02:11:34;;;;;;;23.88;15.63;;;;;;;16.92;100.00;101554.94;5074704;28;20141;-67
2023/09/02 02:14:01;;;;;;;25.08;17.13;;;;;;;16.92;100.00;101552.28;5074628;28;20033;-66
2023/09/02 02:16:26;;;;;;;26.10;17.15;;;;;;;16.85;100.00;101548.75;5074617;28;20063;-63
2023/09/02 02:18:52;;;;;;;25.90;16.48;;;;;;;16.79;100.00;101546.13;5074545;28;20072;-64
2023/09/02 02:21:17;;;;;;;26.40;17.13;;;;;;;16.71;100.00;101547.09;5074586;28;20032;-65
2023/09/02 02:23:43;;;;;;;24.40;17.02;;;;;;;16.75;100.00;101550.63;5074405;28;20486;-64
2023/09/02 02:26:08;;;;;;;24.95;16.70;;;;;;;16.73;100.00;101553.31;5074555;28;20028;-63
2023/09/02 02:28:34;;;;;;;24.65;16.45;;;;;;;16.74;100.00;101548.84;5074624;28;20383;-66
2023/09/02 02:30:59;;;;;;;24.60;16.05;;;;;;;16.73;100.00;101556.00;5074291;28;20386;-64
2023/09/02 02:33:25;;;;;;;24.30;15.70;;;;;;;16.69;100.00;101562.25;5072964;28;20383;-63
2023/09/02 02:35:51;;;;;;;25.00;16.05;;;;;;;16.76;100.00;101562.19;5074217;28;20047;-66
2023/09/02 02:38:16;;;;;;;24.60;15.57;;;;;;;16.68;100.00;101564.94;5074363;28;20029;-65
2023/09/02 02:40:42;;;;;;;24.15;15.02;;;;;;;16.75;100.00;101566.66;5074391;28;20024;-63
2023/09/02 02:43:07;;;;;;;25.23;16.35;;;;;;;16.71;100.00;101559.56;5073980;28;20031;-65
2023/09/02 02:45:32;;;;;;;26.13;16.65;;;;;;;16.68;100.00;101565.81;5074279;28;20035;-64
2023/09/02 02:47:58;;;;;;;24.60;14.63;;;;;;;16.68;100.00;101568.47;5073858;28;20036;-63
2023/09/02 02:50:24;;;;;;;24.45;16.15;;;;;;;16.69;100.00;101572.06;5073805;28;20036;-63
2023/09/02 02:52:50;;;;;;;25.42;16.08;;;;;;;16.67;100.00;101564.06;5073678;28;20023;-65
2023/09/02 02:55:15;;;;;;;26.83;16.52;;;;;;;16.69;100.00;101567.59;5069641;28;20537;-65
2023/09/02 02:57:41;;;;;;;24.08;15.52;;;;;;;16.70;100.00;101569.38;5073726;28;20029;-64
2023/09/02 03:00:09;;;;;;;25.02;15.68;;;;;;;16.75;100.00;101577.34;5073799;28;20379;-65
2023/09/02 03:02:35;;;;;;;24.70;16.23;;;;;;;16.76;100.00;101573.78;5073825;28;20385;-63
2023/09/02 03:05:01;;;;;;;23.88;15.60;;;;;;;16.79;100.00;101568.41;5073645;28;20025;-62
2023/09/02 03:07:26;;;;;;;25.35;17.40;;;;;;;16.71;100.00;101571.13;5073880;28;20036;-63
2023/09/02 03:09:52;;;;;;;25.15;16.92;;;;;;;16.68;100.00;101565.81;5073423;28;20036;-63
2023/09/02 03:12:18;;;;;;;25.17;16.88;;;;;;;16.63;100.00;101566.75;5073643;28;20471;-66
2023/09/02 03:14:46;;;;;;;25.65;16.63;;;;;;;16.63;100.00;101566.75;5073815;28;20032;-65
2023/09/02 03:17:12;;;;;;;26.75;18.08;;;;;;;16.59;100.00;101557.03;5072197;28;20025;-67
2023/09/02 03:19:37;;;;;;;26.05;16.85;;;;;;;16.51;100.00;101567.75;5073225;28;20429;-65
2023/09/02 03:22:03;;;;;;;25.98;16.00;;;;;;;16.49;100.00;101565.09;5073474;28;20435;-69
2023/09/02 03:24:29;;;;;;;24.83;15.90;;;;;;;16.48;100.00;101575.78;5073438;28;20036;-65
2023/09/02 03:26:54;;;;;;;23.60;15.07;;;;;;;16.44;100.00;101568.72;5073275;28;20033;-63
2023/09/02 03:29:20;;;;;;;25.38;16.00;;;;;;;16.38;100.00;101569.63;5073196;28;20134;-66
2023/09/02 03:31:45;;;;;;;25.25;16.85;;;;;;;16.33;100.00;101575.00;5072936;28;20063;-63
2023/09/02 03:34:10;;;;;;;24.83;16.60;;;;;;;16.35;100.00;101567.91;5073553;28;20036;-63
2023/09/02 03:36:35;;;;;;;25.48;16.27;;;;;;;16.35;100.00;101575.91;5073020;28;20038;-63
2023/09/02 03:39:01;;;;;;;25.42;16.33;;;;;;;16.37;100.00;101582.09;5073287;28;20479;-64
2023/09/02 03:41:26;;;;;;;24.95;15.38;;;;;;;16.37;100.00;101579.44;5073406;28;20043;-64
2023/09/02 03:43:52;;;;;;;24.58;16.20;;;;;;;16.41;100.00;101590.09;5072958;28;20025;-63
2023/09/02 03:46:18;;;;;;;25.83;16.67;;;;;;;16.39;100.00;101592.75;5072718;28;20024;-62
2023/09/02 03:48:43;;;;;;;25.40;16.65;;;;;;;16.37;100.00;101591.91;5073264;28;20044;-63
2023/09/02 03:51:12;;;;;;;25.05;15.77;;;;;;;16.40;100.00;101594.53;5072802;28;20134;-65
2023/09/02 03:53:41;;;;;;;26.05;17.13;;;;;;;16.47;100.00;101603.38;5072769;28;20040;-70
2023/09/02 03:56:07;;;;;;;25.48;16.98;;;;;;;16.48;100.00;101591.81;5071718;28;20086;-70
2023/09/02 03:58:33;;;;;;;24.40;16.27;;;;;;;16.48;100.00;101595.34;5072673;28;20025;-70
2023/09/02 04:00:58;;;;;;;25.55;16.83;;;;;;;16.46;100.00;101593.63;5072707;28;20038;-70
2023/09/02 04:03:24;;;;;;;24.65;17.23;;;;;;;16.48;100.00;101591.81;5072194;28;20032;-67
2023/09/02 04:05:50;;;;;;;25.30;17.30;;;;;;;16.48;100.00;101589.13;5072722;28;20040;-67
2023/09/02 04:08:17;;;;;;;24.67;16.50;;;;;;;16.47;100.00;101590.94;5072590;28;20554;-66
2023/09/02 04:10:43;;;;;;;25.35;16.75;;;;;;;16.45;100.00;101595.38;5072939;28;20032;-68
2023/09/02 04:13:08;;;;;;;24.83;16.60;;;;;;;16.44;100.00;101592.72;5088153;28;20032;-70
2023/09/02 04:15:34;;;;;;;26.05;17.42;;;;;;;16.40;100.00;101594.53;5072811;28;20108;-69
2023/09/02 04:17:59;;;;;;;26.30;16.80;;;;;;;16.42;100.00;101597.19;5073024;28;20029;-68
2023/09/02 04:20:24;;;;;;;23.90;16.25;;;;;;;16.41;100.00;101592.75;5072579;28;20032;-67
2023/09/02 04:22:50;;;;;;;26.00;15.90;;;;;;;16.35;100.00;101597.25;5088246;28;20360;-68
2023/09/02 04:25:16;;;;;;;25.48;16.85;;;;;;;16.33;100.00;101593.69;5072975;28;20032;-70
2023/09/02 04:27:41;;;;;;;26.17;17.05;;;;;;;16.36;100.00;101604.34;5072357;28;20399;-69
2023/09/02 04:30:07;;;;;;;24.73;16.08;;;;;;;16.32;100.00;101597.25;5072552;28;20036;-68
2023/09/02 04:32:32;;;;;;;23.75;15.68;;;;;;;16.37;100.00;101602.56;5072244;28;20080;-70
2023/09/02 04:34:58;;;;;;;24.60;15.75;;;;;;;16.34;100.00;101603.47;5087898;28;20439;-71
2023/09/02 04:37:23;;;;;;;25.45;15.80;;;;;;;16.37;100.00;101608.78;5072528;28;20025;-68
2023/09/02 04:39:48;;;;;;;24.38;15.52;;;;;;;16.35;100.00;101607.94;5071242;28;20134;-67
2023/09/02 04:42:14;;;;;;;24.38;15.35;;;;;;;16.33;100.00;101600.81;5072239;28;20040;-72
2023/09/02 04:44:39;;;;;;;24.60;14.82;;;;;;;16.36;100.00;101609.66;5072489;28;20024;-72
2023/09/02 04:47:06;;;;;;;24.08;14.50;;;;;;;16.39;100.00;101606.97;5072137;28;20037;-71
2023/09/02 04:49:32;;;;;;;25.63;14.90;;;;;;;16.37;100.00;101608.78;5072269;28;20475;-72
2023/09/02 04:51:57;;;;;;;23.98;14.32;;;;;;;16.35;100.00;101609.69;5072362;28;20062;-72
2023/09/02 04:54:23;;;;;;;23.27;13.88;;;;;;;16.34;100.00;101619.47;5072394;28;20064;-70
2023/09/02 04:56:49;;;;;;;24.98;15.13;;;;;;;16.34;100.00;101618.59;5072424;28;20118;-72
2023/09/02 04:59:14;;;;;;;24.20;14.02;;;;;;;16.34;100.00;101611.47;5072288;28;20056;-71
2023/09/02 05:01:40;;;;;;;23.95;13.82;;;;;;;16.32;100.00;101612.38;5072203;28;20494;-72
2023/09/02 05:04:05;;;;;;;24.40;13.50;;;;;;;16.28;100.00;101614.19;5072106;28;20024;-67
2023/09/02 05:06:30;;;;;;;24.13;13.40;;;;;;;16.25;100.00;101616.00;5072211;28;20029;-72
2023/09/02 05:08:56;;;;;;;23.48;13.52;;;;;;;16.20;100.00;101622.22;5071997;28;20032;-72
2023/09/02 05:11:21;;;;;;;23.23;13.52;;;;;;;16.15;100.00;101626.72;5072177;28;20021;-70
2023/09/02 05:13:48;;;;;;;23.17;12.95;;;;;;;16.11;100.00;101622.31;5072196;28;20048;-72
2023/09/02 05:16:13;;;;;;;24.50;14.15;;;;;;;16.08;100.00;101621.47;5075205;28;20033;-72
2023/09/02 05:18:40;;;;;;;23.25;14.38;;;;;;;15.99;100.00;101620.59;5076018;28;20044;-72
2023/09/02 05:21:05;;;;;;;24.00;14.40;;;;;;;16.04;100.00;101639.25;5075621;28;20525;-72
2023/09/02 05:23:32;;;;;;;25.92;14.35;;;;;;;15.95;100.00;101639.31;5075659;28;20082;-65
2023/09/02 05:25:57;;;;;;;23.50;14.27;;;;;;;15.93;100.00;101641.97;5075690;28;20029;-65
2023/09/02 05:28:24;;;;;;;24.48;14.82;;;;;;;15.92;100.00;101652.66;5075426;28;20161;-66
2023/09/02 05:30:49;;;;;;;23.08;13.45;;;;;;;15.94;100.00;101651.72;5075513;28;20137;-63
2023/09/02 05:33:16;;;;;;;24.02;13.52;;;;;;;15.97;100.00;101643.72;5075435;28;20451;-62
2023/09/02 05:35:41;;;;;;;24.00;12.82;;;;;;;15.99;100.00;101654.41;5075649;28;20040;-63
2023/09/02 05:38:07;;;;;;;22.55;12.90;;;;;;;16.08;100.00;101661.47;5075164;28;20020;-63
2023/09/02 05:40:32;;;;;;;23.13;14.30;;;;;;;16.15;100.00;101661.41;5075744;28;20586;-63
2023/09/02 05:42:58;;;;;;;25.15;13.52;;;;;;;16.19;100.00;101667.59;5075395;28;20543;-64
2023/09/02 05:45:23;;;;;;;22.90;13.32;;;;;;;16.29;100.00;101668.44;5075395;28;20090;-64
2023/09/02 05:47:48;;;;;;;23.02;13.13;;;;;;;16.34;100.00;101661.28;5075569;28;20040;-63
2023/09/02 05:50:14;;;;;;;24.70;13.52;;;;;;;16.36;100.00;101660.38;5075294;28;20032;-62
2023/09/02 05:52:40;;;;;;;22.35;13.27;;;;;;;16.40;100.00;101663.91;5075451;28;20025;-64
2023/09/02 05:55:06;;;;;;;21.98;12.45;;;;;;;16.43;100.00;101660.34;5075246;28;20052;-64
2023/09/02 05:57:32;;;;;;;22.33;12.30;;;;;;;16.50;100.00;101662.94;5074805;28;20532;-64
2023/09/02 05:59:57;;;;;;;21.65;12.00;;;;;;;16.52;100.00;101669.16;5075093;28;20099;-63
2023/09/02 06:02:23;;;;;;;22.42;11.70;;;;;;;16.59;100.00;101667.34;5074882;28;20052;-64
2023/09/02 06:04:48;;;;;;;21.67;11.00;;;;;;;16.62;100.00;101667.31;5074869;28;20118;-64
2023/09/02 06:07:14;;;;;;;20.00;10.20;;;;;;;16.71;100.00;101671.69;5073632;28;20043;-65
2023/09/02 06:09:39;;;;;;;22.02;11.38;;;;;;;16.73;100.00;101670.78;5074514;28;20464;-65
2023/09/02 06:12:05;;;;;;;24.08;11.50;;;;;;;16.77;100.00;101676.97;5074653;28;20025;-68
2023/09/02 06:14:30;;;;;;;22.58;11.75;;;;;;;16.83;100.00;101673.38;5074884;28;20035;-64
2023/09/02 06:16:55;;;;;;;21.70;12.15;;;;;;;16.87;100.00;101677.78;5074857;28;20071;-64
2023/09/02 06:19:21;;;;;;;23.58;12.20;;;;;;;16.95;100.00;101684.00;5074649;28;20073;-62
2023/09/02 06:21:46;;;;;;;22.52;12.88;;;;;;;16.99;100.00;101682.16;5074677;28;20028;-63
2023/09/02 06:24:11;;;;;;;22.85;12.82;;;;;;;17.07;100.00;101696.34;5074471;28;20173;-63
2023/09/02 06:26:37;;;;;;;21.95;12.85;;;;;;;17.16;100.00;101692.69;5073530;28;20436;-64
2023/09/02 06:29:02;;;;;;;24.17;12.60;;;;;;;17.25;100.00;101700.63;5074476;28;20497;-63
2023/09/02 06:31:28;;;;;;;21.90;11.68;;;;;;;17.35;100.00;101701.41;5074195;28;20491;-63
2023/09/02 06:33:53;;;;;;;24.55;12.68;;;;;;;17.44;100.00;101701.31;5074520;28;20460;-65
2023/09/02 06:36:21;;;;;;;23.25;14.52;;;;;;;17.57;100.00;101708.28;5074556;28;20025;-64
2023/09/02 06:38:46;;;;;;;25.92;18.92;;;;;;;17.64;100.00;101713.59;5074135;28;20032;-65
2023/09/02 06:41:14;;;;;;;26.35;19.27;;;;;;;17.67;100.00;101709.06;5074308;28;20033;-63
2023/09/02 06:43:40;;;;;;;26.05;16.65;;;;;;;17.67;100.00;101702.84;5074291;28;20103;-70
2023/09/02 06:46:22;;;;;;;22.77;14.52;;;;;;;17.75;100.00;101722.34;5074142;28;20035;-69
2023/09/02 06:48:48;;;;;;;23.55;14.80;;;;;;;17.76;100.00;101724.13;5074191;28;20107;-68
2023/09/02 06:51:15;;;;;;;24.67;17.35;;;;;;;17.82;100.00;101731.19;5074080;28;20143;-66
2023/09/02 06:53:41;;;;;;;24.50;18.08;;;;;;;17.85;100.00;101740.06;5073927;28;20408;-69
2023/09/02 06:56:08;;;;;;;24.52;16.38;;;;;;;17.82;100.00;101749.91;5073869;28;20467;-72
2023/09/02 06:58:34;;;;;;;25.50;16.08;;;;;;;17.84;100.00;101751.66;5073968;28;20115;-69
2023/09/02 07:00:59;;;;;;;23.83;15.45;;;;;;;17.84;100.00;101748.09;5073634;28;20150;-71
2023/09/02 07:03:24;;;;;;;24.73;16.00;;;;;;;17.84;100.00;101756.13;5073821;28;20032;-71
2023/09/02 07:05:50;;;;;;;24.58;16.10;;;;;;;17.98;100.00;101756.88;5073940;28;20025;-72
2023/09/02 07:08:15;;;;;;;24.35;16.15;;;;;;;18.11;100.00;101765.63;5073560;28;20479;-70
2023/09/02 07:10:41;;;;;;;24.85;16.20;;;;;;;18.26;100.00;101765.47;5066761;28;20050;-68
2023/09/02 07:13:06;;;;;;;24.10;15.77;;;;;;;18.43;100.00;101765.22;5070621;28;20052;-66
2023/09/02 07:15:32;;;;;;;24.77;16.00;;;;;;;18.53;100.00;101765.09;5068831;28;20029;-65
2023/09/02 07:17:57;;;;;;;24.15;15.80;;;;;;;18.68;100.00;101770.22;5067876;28;20056;-64
2023/09/02 07:20:22;;;;;;;24.42;14.98;;;;;;;18.72;100.00;101777.28;5073598;28;20036;-66
2023/09/02 07:22:48;;;;;;;24.23;14.85;;;;;;;18.81;100.00;101766.47;5072694;28;20379;-66
2023/09/02 07:25:13;;;;;;;23.27;14.27;;;;;;;18.94;100.00;101779.69;5073650;28;20390;-65
2023/09/02 07:27:38;;;;;;;23.70;13.90;;;;;;;19.04;100.00;101780.44;5072380;28;20471;-68
2023/09/02 07:30:04;;;;;;;22.05;13.57;;;;;;;19.06;100.00;101779.50;5068003;28;20494;-68
2023/09/02 07:32:29;;;;;;;22.83;13.95;;;;;;;19.07;100.00;101772.34;5067997;28;20415;-66
2023/09/02 07:34:55;;;;;;;22.73;14.00;;;;;;;19.04;100.00;101773.28;5067059;28;20021;-63
2023/09/02 07:37:20;;;;;;;23.17;14.52;;;;;;;19.15;100.00;101779.34;5073023;28;20434;-62
2023/09/02 07:39:46;;;;;;;23.75;14.55;;;;;;;19.25;100.00;101781.84;5073255;28;20028;-64
2023/09/02 07:42:11;;;;;;;25.42;14.70;;;;;;;19.32;100.00;101775.47;5071579;28;20033;-64
2023/09/02 07:44:36;;;;;;;23.02;14.70;;;;;;;19.26;100.00;101783.63;5072851;28;20120;-70
2023/09/02 07:47:02;;;;;;;24.30;15.40;;;;;;;19.21;100.00;101783.72;5085951;28;20047;-61
2023/09/02 07:49:27;;;;;;;25.67;16.80;;;;;;;19.21;100.00;101794.44;5074093;28;20502;-64
2023/09/02 07:51:53;;;;;;;24.67;17.35;;;;;;;19.29;100.00;101800.53;5084192;28;20038;-65
2023/09/02 07:54:18;;;;;;;27.33;23.40;;;;;;;19.31;100.00;101804.09;5072651;28;20071;-64
2023/09/02 07:56:43;;;;;;;29.48;24.58;;;;;;;19.35;100.00;101802.22;5072670;28;20587;-65
2023/09/02 07:59:09;;;;;;;33.05;29.65;;;;;;;19.41;100.00;101804.81;5072915;28;20020;-71
2023/09/02 08:01:34;;;;;;;33.42;29.92;;;;;;;19.46;100.00;101799.38;5072270;28;20381;-65
2023/09/02 08:03:59;;;;;;;33.05;29.55;;;;;;;19.54;100.00;101799.22;5072618;28;20029;-66
2023/09/02 08:06:25;;;;;;;34.50;30.90;;;;;;;19.66;100.00;101796.34;5072782;28;20035;-68
2023/09/02 08:08:52;;;;;;;31.70;28.30;;;;;;;19.71;100.00;101802.50;5069363;28;20499;-65
2023/09/02 08:11:18;;;;;;;28.80;23.48;;;;;;;19.67;100.00;101800.78;5065130;28;20033;-61
2023/09/02 08:13:44;;;;;;;25.63;20.73;;;;;;;19.67;100.00;101809.72;5072266;28;20024;-62
2023/09/02 08:16:09;;;;;;;25.42;19.52;;;;;;;19.70;100.00;101814.13;5072382;28;20025;-63
2023/09/02 08:18:35;;;;;;;24.20;17.95;;;;;;;19.65;100.00;101803.47;5072362;28;20029;-61
2023/09/02 08:21:07;;;;;;;26.08;19.70;;;;;;;19.62;100.00;101806.22;5072731;28;20025;-62
2023/09/02 08:23:32;;;;;;;24.95;18.65;;;;;;;19.62;100.00;101802.69;5069141;28;20052;-63
2023/09/02 08:25:57;;;;;;;25.40;19.15;;;;;;;19.73;100.00;101807.81;5071962;28;20070;-63
2023/09/02 08:28:23;;;;;;;27.33;20.50;;;;;;;19.78;100.00;101808.63;5072755;28;20391;-64
2023/09/02 08:30:48;;;;;;;26.75;19.50;;;;;;;19.74;100.00;101802.44;5072559;28;20371;-62
2023/09/02 08:33:13;;;;;;;25.58;19.70;;;;;;;19.76;100.00;101814.03;5072036;28;20396;-64
2023/09/02 08:35:39;;;;;;;25.80;20.15;;;;;;;19.84;100.00;101816.59;5072442;28;20026;-63
2023/09/02 08:38:04;;;;;;;28.55;20.83;;;;;;;19.90;100.00;101823.66;5072164;28;20062;-62
2023/09/02 08:40:30;;;;;;;25.85;19.77;;;;;;;20.08;100.00;101823.28;5072471;28;20028;-63
2023/09/02 08:42:56;;;;;;;25.80;20.20;;;;;;;20.29;100.00;101826.47;5072718;28;20453;-62
2023/09/02 08:45:22;;;;;;;26.33;19.52;;;;;;;20.32;100.00;101821.03;5072272;28;20032;-63
2023/09/02 08:47:54;;;;;;;26.60;19.85;;;;;;;20.44;100.00;101836.84;5072110;28;20082;-63
2023/09/02 08:50:20;;;;;;;26.10;19.88;;;;;;;20.44;100.00;101831.47;5073796;28;20031;-63
2023/09/02 08:52:46;;;;;;;27.27;19.83;;;;;;;20.29;100.00;101832.69;5076078;28;20039;-67
2023/09/02 08:55:14;;;;;;;26.20;19.83;;;;;;;20.29;100.00;101831.81;5076097;28;20024;-65
2023/09/02 08:57:39;;;;;;;26.58;20.15;;;;;;;20.17;100.00;101833.84;5069074;28;20377;-71
2023/09/02 09:00:06;;;;;;;25.75;20.25;;;;;;;20.16;100.00;101836.56;5087637;28;20078;-72
2023/09/02 09:02:34;;;;;;;26.27;20.80;;;;;;;20.06;100.00;101833.16;5069620;28;20071;-72
2023/09/02 09:05:02;;;;;;;26.45;20.88;;;;;;;20.01;100.00;101835.94;5076287;28;20100;-72
2023/09/02 09:07:29;;;;;;;28.23;21.17;;;;;;;19.99;100.00;101844.91;5075672;28;20075;-72
2023/09/02 09:09:57;;;;;;;26.52;21.35;;;;;;;20.06;100.00;101843.91;5075595;28;20033;-73
2023/09/02 09:12:25;;;;;;;27.75;22.13;;;;;;;20.12;100.00;101845.56;5075804;28;20054;-70
2023/09/02 09:14:54;;;;;;;27.80;22.23;;;;;;;20.19;100.00;101853.47;5075175;28;20418;-65
2023/09/02 09:17:19;;;;;;;29.67;24.75;;;;;;;20.38;100.00;101847.72;5075833;28;20101;-67
2023/09/02 09:19:46;;;;;;;30.98;25.35;;;;;;;20.76;100.00;101846.03;5075641;28;20460;-67
2023/09/02 09:22:11;;;;;;;28.08;21.65;;;;;;;21.11;100.00;101843.47;5075502;28;20032;-68
2023/09/02 09:24:37;;;;;;;27.05;20.58;;;;;;;21.53;100.00;101840.66;5075717;28;20027;-66
2023/09/02 09:27:06;;;;;;;26.73;19.55;;;;;;;21.86;100.00;101838.88;5075119;28;20020;-68
2023/09/02 09:29:42;;;;;;;26.52;19.95;;;;;;;21.88;100.00;101830.78;5071617;28;20024;-68
2023/09/02 09:32:12;;;;;;;26.42;19.20;;;;;;;21.75;100.00;101830.22;5071962;28;20139;-67
2023/09/02 09:34:40;;;;;;;26.02;19.73;;;;;;;21.76;100.00;101854.38;5067224;28;20022;-69
2023/09/02 09:37:06;;;;;;;24.63;18.50;;;;;;;21.80;100.00;101862.38;5074174;28;20025;-67
2023/09/02 09:39:51;;;;;;;25.65;19.40;;;;;;;22.04;100.00;101869.78;5074883;28;20033;-65
2023/09/02 09:42:17;;;;;;;25.08;18.83;;;;;;;22.12;100.00;101872.28;5071550;28;20036;-67
2023/09/02 09:44:56;;;;;;;24.92;19.10;;;;;;;22.47;100.00;101881.22;5075236;28;20024;-68
2023/09/02 09:47:23;;;;;;;25.58;18.83;;;;;;;22.80;100.00;101879.31;5072172;28;20044;-70
2023/09/02 09:49:52;;;;;;;23.67;17.40;;;;;;;23.20;100.00;101887.09;5074351;28;20029;-68
2023/09/02 09:52:20;;;;;;;23.83;16.67;;;;;;;23.76;100.00;101872.63;5060610;28;20021;-67
2023/09/02 09:54:52;;;;;;;23.30;16.33;;;;;;;24.34;100.00;101870.56;5075030;28;20025;-68
2023/09/02 09:57:34;;;;;;;24.23;17.20;;;;;;;24.47;100.00;101870.13;5071770;28;20058;-64
2023/09/02 10:00:00;;;;;;;;;;;;;;;24.98;100.00;101866.34;5075511;28;20052;-64
2023/09/02 10:02:25;;;;;;;23.33;16.60;;;;;;;25.60;100.00;101860.22;5073272;28;20762;-65
2023/09/02 10:04:55;;;;;;;23.98;16.23;;;;;;;25.52;100.00;101866.84;5074505;28;20028;-64
2023/09/02 10:07:31;;;;;;;23.05;16.00;;;;;;;24.97;100.00;101869.97;5073494;28;20407;-66
2023/09/02 10:09:59;;;;;;;24.92;17.50;;;;;;;24.51;100.00;101877.16;5074747;28;20032;-66
2023/09/02 10:12:25;;;;;;;24.95;18.35;;;;;;;24.09;100.00;101875.13;5074366;28;20089;-65
2023/09/02 10:14:51;;;;;;;23.70;17.38;;;;;;;24.15;100.00;101874.91;5073997;28;20475;-63
2023/09/02 10:17:17;;;;;;;25.55;18.52;;;;;;;24.05;100.00;101881.56;5074926;28;20028;-66
2023/09/02 10:19:44;;;;;;;24.75;17.70;;;;;;;24.18;100.00;101885.59;5074347;28;20025;-68
2023/09/02 10:22:18;;;;;;;23.20;16.17;;;;;;;24.78;100.00;101896.88;5074806;28;20040;-66
2023/09/02 10:24:45;;;;;;;22.73;15.52;;;;;;;25.86;100.00;101900.63;5074842;28;20031;-67
2023/09/02 10:27:21;;;;;;;22.75;15.30;;;;;;;27.28;100.00;101901.34;5074389;28;20476;-67
2023/09/02 10:29:53;;;;;;;22.25;14.60;;;;;;;28.67;100.00;101895.06;5074645;28;20035;-70
2023/09/02 10:32:23;;;;;;;23.98;16.40;;;;;;;29.65;100.00;101897.66;5074290;28;20137;-68
2023/09/02 10:34:58;;;;;;;24.73;17.73;;;;;;;28.76;100.00;101901.84;5074448;28;20024;-65
2023/09/02 10:37:29;;;;;;;24.20;17.50;;;;;;;27.39;100.00;101912.59;5070674;28;20060;-68
2023/09/02 10:40:05;;;;;;;27.33;20.03;;;;;;;26.13;100.00;101910.34;5070547;28;20515;-64
2023/09/02 10:42:31;;;;;;;26.40;20.40;;;;;;;25.26;100.00;101908.50;5071359;28;20021;-70
2023/09/02 10:44:57;;;;;;;26.42;20.80;;;;;;;24.80;100.00;101907.63;5074324;28;20039;-64
2023/09/02 10:47:22;;;;;;;27.58;21.17;;;;;;;24.62;100.00;101911.91;5073872;28;20040;-65
2023/09/02 10:49:49;;;;;;;26.30;20.05;;;;;;;24.36;100.00;101909.22;5074184;28;20032;-65
2023/09/02 10:52:15;;;;;;;26.85;20.20;;;;;;;24.16;100.00;101909.06;5089569;28;20031;-68
2023/09/02 10:55:09;;;;;;;25.85;20.50;;;;;;;24.06;100.00;101918.41;5073977;28;20033;-72
2023/09/02 10:57:50;;;;;;;27.58;20.88;;;;;;;23.71;100.00;101907.91;5069545;28;20143;-68
2023/09/02 11:00:16;;;;;;;26.38;20.45;;;;;;;23.73;100.00;101910.53;5076265;28;20032;-66